createdAt,value
2019-03-16T00:00:58.175Z,995.00
2019-03-16T00:01:58.147Z,995.17
2019-03-16T00:02:58.161Z,995.19
2019-03-16T00:03:58.111Z,995.26
2019-03-16T00:04:58.090Z,995.30
2019-03-16T00:05:58.060Z,995.36
2019-03-16T00:06:58.040Z,995.32
2019-03-16T00:07:58.014Z,995.32
2019-03-16T00:08:57.993Z,995.35
2019-03-16T00:09:57.978Z,995.35
2019-03-16T00:10:57.951Z,995.35
2019-03-16T00:11:58.089Z,995.41
2019-03-16T00:12:57.904Z,995.62
2019-03-16T00:13:57.892Z,995.47
2019-03-16T00:14:57.858Z,995.63
2019-03-16T00:15:57.837Z,995.61
2019-03-16T00:16:57.816Z,995.66
2019-03-16T00:17:57.789Z,995.61
2019-03-16T00:18:57.766Z,995.62
2019-03-16T00:19:57.743Z,995.58
2019-03-16T00:20:57.729Z,995.42
2019-03-16T00:21:57.699Z,995.59
2019-03-16T00:22:57.677Z,995.62
2019-03-16T00:23:57.649Z,995.49
2019-03-16T00:24:57.635Z,995.60
2019-03-16T00:25:57.611Z,995.70
2019-03-16T00:26:57.585Z,995.62
2019-03-16T00:27:57.560Z,995.65
2019-03-16T00:28:57.542Z,995.65
2019-03-16T00:29:57.518Z,995.72
2019-03-16T00:30:57.497Z,995.70
2019-03-16T00:31:57.475Z,995.61
2019-03-16T00:32:57.453Z,995.72
2019-03-16T00:33:57.440Z,995.68
2019-03-16T00:34:57.402Z,995.68
2019-03-16T00:35:57.382Z,995.67
2019-03-16T00:36:57.360Z,995.80
2019-03-16T00:37:57.333Z,996.12
2019-03-16T00:38:57.313Z,995.85
2019-03-16T00:39:57.297Z,996.04
2019-03-16T00:40:57.274Z,996.05
2019-03-16T00:41:57.250Z,995.98
2019-03-16T00:42:57.225Z,995.90
2019-03-16T00:43:57.202Z,996.01
2019-03-16T00:44:57.178Z,995.96
2019-03-16T00:45:57.160Z,996.02
2019-03-16T00:46:57.135Z,995.90
2019-03-16T00:47:57.113Z,995.89
2019-03-16T00:48:57.088Z,996.07
2019-03-16T00:49:57.070Z,995.99
2019-03-16T00:50:57.046Z,996.05
2019-03-16T00:51:57.023Z,996.11
2019-03-16T00:52:57.001Z,996.03
2019-03-16T00:53:56.981Z,996.04
2019-03-16T00:54:56.953Z,995.99
2019-03-16T00:55:56.929Z,995.98
2019-03-16T00:56:56.907Z,995.99
2019-03-16T00:57:56.886Z,996.16
2019-03-16T00:58:56.861Z,996.07
2019-03-16T00:59:56.862Z,996.19
2019-03-16T01:00:56.819Z,996.10
2019-03-16T01:01:56.801Z,996.18
2019-03-16T01:02:56.773Z,996.12
2019-03-16T01:03:56.749Z,996.10
2019-03-16T01:04:56.728Z,996.14
2019-03-16T01:05:56.708Z,996.07
2019-03-16T01:06:56.681Z,996.14
2019-03-16T01:07:56.663Z,996.10
2019-03-16T01:08:56.640Z,996.31
2019-03-16T01:09:56.617Z,996.26
2019-03-16T01:10:56.590Z,996.27
2019-03-16T01:11:56.567Z,996.30
2019-03-16T01:12:56.543Z,996.32
2019-03-16T01:13:56.525Z,996.23
2019-03-16T01:14:56.501Z,996.31
2019-03-16T01:15:56.482Z,996.36
2019-03-16T01:16:56.454Z,996.32
2019-03-16T01:17:56.442Z,996.32
2019-03-16T01:18:56.409Z,996.39
2019-03-16T01:19:56.393Z,996.39
2019-03-16T01:20:56.372Z,996.42
2019-03-16T01:21:56.397Z,996.52
2019-03-16T01:22:56.324Z,996.59
2019-03-16T01:23:56.297Z,996.62
2019-03-16T01:24:56.278Z,996.52
2019-03-16T01:25:56.261Z,996.57
2019-03-16T01:26:56.226Z,996.63
2019-03-16T01:27:56.205Z,996.63
2019-03-16T01:28:56.193Z,996.50
2019-03-16T01:29:56.161Z,996.63
2019-03-16T01:30:56.149Z,996.55
2019-03-16T01:31:56.120Z,996.62
2019-03-16T01:32:56.097Z,996.65
2019-03-16T01:33:56.075Z,996.67
2019-03-16T01:34:56.047Z,996.64
2019-03-16T01:35:56.028Z,996.61
2019-03-16T01:36:56.005Z,996.63
2019-03-16T01:37:55.983Z,996.71
2019-03-16T01:38:55.959Z,996.66
2019-03-16T01:39:55.939Z,996.65
2019-03-16T01:40:55.913Z,996.66
2019-03-16T01:41:55.891Z,996.69
2019-03-16T01:42:55.867Z,996.82
2019-03-16T01:43:55.846Z,996.70
2019-03-16T01:44:55.830Z,996.78
2019-03-16T01:45:55.796Z,996.88
2019-03-16T01:46:55.780Z,996.78
2019-03-16T01:47:55.754Z,996.85
2019-03-16T01:48:55.734Z,996.88
2019-03-16T01:49:55.708Z,996.86
2019-03-16T01:50:55.686Z,996.80
2019-03-16T01:51:55.667Z,996.87
2019-03-16T01:52:55.644Z,996.93
2019-03-16T01:53:55.621Z,996.88
2019-03-16T01:54:55.596Z,996.88
2019-03-16T01:55:55.573Z,996.91
2019-03-16T01:56:55.551Z,996.80
2019-03-16T01:57:55.532Z,996.81
2019-03-16T01:58:55.506Z,996.95
2019-03-16T01:59:55.485Z,996.86
2019-03-16T02:00:55.471Z,996.82
2019-03-16T02:01:55.442Z,996.84
2019-03-16T02:02:55.987Z,996.88
2019-03-16T02:03:55.407Z,996.94
2019-03-16T02:04:55.372Z,997.00
2019-03-16T02:05:55.350Z,996.93
2019-03-16T02:06:55.328Z,996.91
2019-03-16T02:07:55.305Z,996.98
2019-03-16T02:08:55.283Z,996.94
2019-03-16T02:09:55.256Z,997.01
2019-03-16T02:10:55.234Z,997.02
2019-03-16T02:11:55.212Z,996.98
2019-03-16T02:12:55.190Z,996.97
2019-03-16T02:13:55.170Z,997.04
2019-03-16T02:14:55.148Z,997.00
2019-03-16T02:15:55.158Z,997.07
2019-03-16T02:16:55.102Z,997.05
2019-03-16T02:17:55.099Z,997.07
2019-03-16T02:18:55.055Z,997.12
2019-03-16T02:19:55.032Z,997.14
2019-03-16T02:20:55.007Z,997.08
2019-03-16T02:21:54.987Z,997.13
2019-03-16T02:22:54.961Z,997.21
2019-03-16T02:23:54.944Z,997.19
2019-03-16T02:24:54.923Z,997.21
2019-03-16T02:25:54.897Z,997.19
2019-03-16T02:26:54.873Z,997.34
2019-03-16T02:27:54.851Z,997.33
2019-03-16T02:28:54.829Z,997.31
2019-03-16T02:29:54.807Z,997.45
2019-03-16T02:30:54.784Z,997.35
2019-03-16T02:31:54.761Z,997.45
2019-03-16T02:33:11.073Z,997.38
2019-03-16T02:33:54.720Z,997.34
2019-03-16T02:34:54.694Z,997.34
2019-03-16T02:35:54.692Z,997.39
2019-03-16T02:36:54.661Z,997.40
2019-03-16T02:37:54.632Z,997.54
2019-03-16T02:38:54.605Z,997.45
2019-03-16T02:39:54.624Z,997.50
2019-03-16T02:40:54.555Z,997.55
2019-03-16T02:41:54.536Z,997.57
2019-03-16T02:42:54.516Z,997.57
2019-03-16T02:43:54.493Z,997.61
2019-03-16T02:44:54.471Z,997.60
2019-03-16T02:45:54.460Z,997.68
2019-03-16T02:46:54.452Z,997.46
2019-03-16T02:47:54.403Z,997.62
2019-03-16T02:48:54.399Z,997.64
2019-03-16T02:49:54.355Z,997.68
2019-03-16T02:50:54.370Z,997.69
2019-03-16T02:51:54.312Z,997.73
2019-03-16T02:52:54.293Z,997.79
2019-03-16T02:53:54.263Z,997.72
2019-03-16T02:54:54.241Z,997.79
2019-03-16T02:55:54.227Z,997.92
2019-03-16T02:56:54.199Z,997.89
2019-03-16T02:57:54.264Z,997.83
2019-03-16T02:58:54.152Z,997.99
2019-03-16T02:59:54.133Z,997.91
2019-03-16T03:00:54.107Z,997.89
2019-03-16T03:01:54.082Z,997.86
2019-03-16T03:02:54.066Z,997.83
2019-03-16T03:03:54.040Z,997.90
2019-03-16T03:04:54.026Z,998.03
2019-03-16T03:05:53.995Z,997.88
2019-03-16T03:06:53.975Z,997.87
2019-03-16T03:07:53.948Z,997.95
2019-03-16T03:08:53.938Z,997.90
2019-03-16T03:09:53.927Z,998.03
2019-03-16T03:10:53.892Z,997.92
2019-03-16T03:11:53.864Z,997.93
2019-03-16T03:12:53.838Z,997.93
2019-03-16T03:13:53.815Z,997.98
2019-03-16T03:14:53.793Z,997.97
2019-03-16T03:15:53.771Z,997.96
2019-03-16T03:16:53.751Z,997.85
2019-03-16T03:17:53.724Z,997.98
2019-03-16T03:18:53.706Z,998.02
2019-03-16T03:19:53.680Z,998.03
2019-03-16T03:20:53.655Z,998.09
2019-03-16T03:21:53.638Z,998.04
2019-03-16T03:22:53.610Z,998.07
2019-03-16T03:23:53.594Z,998.11
2019-03-16T03:24:53.562Z,997.97
2019-03-16T03:25:53.549Z,998.06
2019-03-16T03:26:53.526Z,998.17
2019-03-16T03:27:53.498Z,998.16
2019-03-16T03:28:53.485Z,998.17
2019-03-16T03:29:57.127Z,998.13
2019-03-16T03:30:53.434Z,998.21
2019-03-16T03:31:53.406Z,998.22
2019-03-16T03:32:53.386Z,998.27
2019-03-16T03:34:01.082Z,998.24
2019-03-16T03:34:53.342Z,998.30
2019-03-16T03:35:53.317Z,998.25
2019-03-16T03:36:53.305Z,998.28
2019-03-16T03:37:53.278Z,998.27
2019-03-16T03:38:53.252Z,998.22
2019-03-16T03:39:53.245Z,998.22
2019-03-16T03:40:53.209Z,998.21
2019-03-16T03:41:53.182Z,998.29
2019-03-16T03:42:53.159Z,998.24
2019-03-16T03:43:53.137Z,998.36
2019-03-16T03:44:53.122Z,998.34
2019-03-16T03:45:53.105Z,998.35
2019-03-16T03:46:53.077Z,998.44
2019-03-16T03:47:53.050Z,998.49
2019-03-16T03:48:53.029Z,998.51
2019-03-16T03:49:53.005Z,998.52
2019-03-16T03:50:52.987Z,998.57
2019-03-16T03:51:52.962Z,998.54
2019-03-16T03:52:52.936Z,998.58
2019-03-16T03:53:52.911Z,998.54
2019-03-16T03:54:52.889Z,998.54
2019-03-16T03:55:52.881Z,998.63
2019-03-16T03:56:52.852Z,998.63
2019-03-16T03:57:52.823Z,998.57
2019-03-16T03:58:52.798Z,998.64
2019-03-16T03:59:52.777Z,998.66
2019-03-16T04:00:52.757Z,998.63
2019-03-16T04:01:52.733Z,998.75
2019-03-16T04:02:52.715Z,998.68
2019-03-16T04:03:52.690Z,998.71
2019-03-16T04:04:52.666Z,998.65
2019-03-16T04:05:52.641Z,998.66
2019-03-16T04:06:52.618Z,998.76
2019-03-16T04:07:52.656Z,998.80
2019-03-16T04:08:52.571Z,998.74
2019-03-16T04:09:52.559Z,998.80
2019-03-16T04:10:52.525Z,998.84
2019-03-16T04:11:52.503Z,998.87
2019-03-16T04:12:52.495Z,998.87
2019-03-16T04:13:52.460Z,998.82
2019-03-16T04:14:52.436Z,998.87
2019-03-16T04:15:52.415Z,998.84
2019-03-16T04:16:52.391Z,998.85
2019-03-16T04:17:52.372Z,998.89
2019-03-16T04:18:52.347Z,998.89
2019-03-16T04:19:52.324Z,998.90
2019-03-16T04:20:52.303Z,998.95
2019-03-16T04:21:52.276Z,998.94
2019-03-16T04:22:52.257Z,998.94
2019-03-16T04:23:52.238Z,998.99
2019-03-16T04:24:52.210Z,998.98
2019-03-16T04:25:52.193Z,999.05
2019-03-16T04:26:52.162Z,999.09
2019-03-16T04:27:52.143Z,999.12
2019-03-16T04:28:52.131Z,999.09
2019-03-16T04:29:52.095Z,999.18
2019-03-16T04:30:52.074Z,999.15
2019-03-16T04:31:52.052Z,999.14
2019-03-16T04:32:52.040Z,999.19
2019-03-16T04:33:52.004Z,999.22
2019-03-16T04:34:51.988Z,999.25
2019-03-16T04:35:51.964Z,999.22
2019-03-16T04:36:51.942Z,999.24
2019-03-16T04:37:51.922Z,999.19
2019-03-16T04:38:51.898Z,999.17
2019-03-16T04:39:51.874Z,999.25
2019-03-16T04:40:51.854Z,999.19
2019-03-16T04:41:51.829Z,999.25
2019-03-16T04:42:51.802Z,999.23
2019-03-16T04:43:51.780Z,999.33
2019-03-16T04:44:51.761Z,999.32
2019-03-16T04:45:51.738Z,999.31
2019-03-16T04:46:51.716Z,999.40
2019-03-16T04:47:51.691Z,999.51
2019-03-16T04:48:51.671Z,999.37
2019-03-16T04:49:51.651Z,999.43
2019-03-16T04:50:51.626Z,999.40
2019-03-16T04:51:51.603Z,999.40
2019-03-16T04:52:51.579Z,999.35
2019-03-16T04:53:51.556Z,999.47
2019-03-16T04:54:51.556Z,999.41
2019-03-16T04:55:51.509Z,999.45
2019-03-16T04:56:51.491Z,999.46
2019-03-16T04:57:51.467Z,999.51
2019-03-16T04:58:51.838Z,999.45
2019-03-16T04:59:51.416Z,999.60
2019-03-16T05:00:51.395Z,999.46
2019-03-16T05:01:51.374Z,999.51
2019-03-16T05:02:51.347Z,999.53
2019-03-16T05:03:51.328Z,999.51
2019-03-16T05:04:51.308Z,999.57
2019-03-16T05:05:51.286Z,999.52
2019-03-16T05:06:51.262Z,999.59
2019-03-16T05:07:51.240Z,999.65
2019-03-16T05:08:51.217Z,999.66
2019-03-16T05:09:51.195Z,999.72
2019-03-16T05:10:51.169Z,999.65
2019-03-16T05:11:51.151Z,999.64
2019-03-16T05:12:51.127Z,999.60
2019-03-16T05:13:51.101Z,999.64
2019-03-16T05:14:51.079Z,999.66
2019-03-16T05:15:51.290Z,999.67
2019-03-16T05:16:51.041Z,999.60
2019-03-16T05:17:51.015Z,999.64
2019-03-16T05:18:50.996Z,999.60
2019-03-16T05:19:50.975Z,999.63
2019-03-16T05:20:50.947Z,999.65
2019-03-16T05:21:50.925Z,999.71
2019-03-16T05:22:50.905Z,999.70
2019-03-16T05:23:50.878Z,999.74
2019-03-16T05:24:50.864Z,999.74
2019-03-16T05:25:50.847Z,999.72
2019-03-16T05:26:50.810Z,999.70
2019-03-16T05:27:50.792Z,999.73
2019-03-16T05:28:50.765Z,999.77
2019-03-16T05:29:50.746Z,999.83
2019-03-16T05:30:50.718Z,999.84
2019-03-16T05:31:50.934Z,999.83
2019-03-16T05:32:50.682Z,999.93
2019-03-16T05:33:50.653Z,999.88
2019-03-16T05:34:56.472Z,999.90
2019-03-16T05:35:50.614Z,999.97
2019-03-16T05:36:50.583Z,999.95
2019-03-16T05:37:50.566Z,1000.00
2019-03-16T05:38:50.545Z,999.93
2019-03-16T05:39:50.515Z,999.95
2019-03-16T05:40:50.495Z,999.88
2019-03-16T05:41:50.478Z,1000.00
2019-03-16T05:42:50.453Z,999.97
2019-03-16T05:43:50.429Z,1000.03
2019-03-16T05:44:50.413Z,1000.08
2019-03-16T05:45:50.399Z,1000.02
2019-03-16T05:46:50.461Z,1000.09
2019-03-16T05:47:50.393Z,1000.18
2019-03-16T05:48:50.315Z,1000.21
2019-03-16T05:49:50.293Z,1000.26
2019-03-16T05:50:50.275Z,1000.21
2019-03-16T05:51:50.253Z,1000.28
2019-03-16T05:52:50.227Z,1000.21
2019-03-16T05:53:50.206Z,1000.26
2019-03-16T05:54:50.181Z,1000.33
2019-03-16T05:55:50.170Z,1000.29
2019-03-16T05:56:50.138Z,1000.34
2019-03-16T05:57:50.115Z,1000.24
2019-03-16T05:58:50.089Z,1000.34
2019-03-16T05:59:50.079Z,1000.44
2019-03-16T06:00:50.046Z,1000.38
2019-03-16T06:01:50.027Z,1000.44
2019-03-16T06:02:50.003Z,1000.43
2019-03-16T06:03:49.976Z,1000.45
2019-03-16T06:04:49.956Z,1000.52
2019-03-16T06:05:49.940Z,1000.56
2019-03-16T06:06:49.915Z,1000.55
2019-03-16T06:07:49.891Z,1000.60
2019-03-16T06:08:49.867Z,1000.60
2019-03-16T06:09:49.850Z,1000.54
2019-03-16T06:10:49.826Z,1000.61
2019-03-16T06:11:49.800Z,1000.57
2019-03-16T06:12:49.776Z,1000.55
2019-03-16T06:13:49.759Z,1000.65
2019-03-16T06:14:49.748Z,1000.66
2019-03-16T06:15:49.711Z,1000.67
2019-03-16T06:16:49.690Z,1000.77
2019-03-16T06:17:49.670Z,1000.75
2019-03-16T06:18:49.644Z,1000.76
2019-03-16T06:19:49.622Z,1000.70
2019-03-16T06:20:49.601Z,1000.68
2019-03-16T06:21:49.580Z,1000.73
2019-03-16T06:22:49.554Z,1000.78
2019-03-16T06:23:49.532Z,1000.73
2019-03-16T06:24:49.515Z,1000.84
2019-03-16T06:25:49.488Z,1000.84
2019-03-16T06:26:49.467Z,1000.87
2019-03-16T06:27:49.450Z,1000.84
2019-03-16T06:28:49.422Z,1000.87
2019-03-16T06:29:49.404Z,1000.92
2019-03-16T06:30:49.374Z,1000.92
2019-03-16T06:31:49.354Z,1001.02
2019-03-16T06:32:49.333Z,1001.01
2019-03-16T06:33:49.310Z,1001.05
2019-03-16T06:34:49.298Z,1001.05
2019-03-16T06:35:49.266Z,1001.07
2019-03-16T06:36:49.246Z,1001.05
2019-03-16T06:37:49.222Z,1001.11
2019-03-16T06:38:49.203Z,1001.13
2019-03-16T06:39:49.175Z,1001.11
2019-03-16T06:40:49.152Z,1001.11
2019-03-16T06:41:49.133Z,1001.17
2019-03-16T06:42:49.110Z,1001.15
2019-03-16T06:43:49.090Z,1001.16
2019-03-16T06:44:49.066Z,1001.22
2019-03-16T06:45:49.042Z,1001.27
2019-03-16T06:46:49.019Z,1001.26
2019-03-16T06:47:49.007Z,1001.24
2019-03-16T06:48:48.982Z,1001.17
2019-03-16T06:49:48.958Z,1001.21
2019-03-16T06:50:48.932Z,1001.17
2019-03-16T06:51:48.913Z,1001.18
2019-03-16T06:52:48.902Z,1001.31
2019-03-16T06:53:48.872Z,1001.20
2019-03-16T06:54:48.847Z,1001.24
2019-03-16T06:55:48.824Z,1001.25
2019-03-16T06:56:48.825Z,1001.31
2019-03-16T06:57:48.782Z,1001.30
2019-03-16T06:58:48.758Z,1001.29
2019-03-16T06:59:48.738Z,1001.32
2019-03-16T07:00:48.715Z,1001.31
2019-03-16T07:01:48.694Z,1001.32
2019-03-16T07:02:48.670Z,1001.31
2019-03-16T07:03:48.652Z,1001.27
2019-03-16T07:04:48.640Z,1001.32
2019-03-16T07:05:48.609Z,1001.35
2019-03-16T07:06:48.581Z,1001.39
2019-03-16T07:07:48.563Z,1001.33
2019-03-16T07:08:48.538Z,1001.39
2019-03-16T07:09:48.520Z,1001.38
2019-03-16T07:10:48.496Z,1001.40
2019-03-16T07:11:48.549Z,1001.40
2019-03-16T07:12:48.450Z,1001.42
2019-03-16T07:13:48.432Z,1001.56
2019-03-16T07:14:48.407Z,1001.50
2019-03-16T07:15:48.389Z,1001.58
2019-03-16T07:17:01.035Z,1001.70
2019-03-16T07:17:48.345Z,1001.59
2019-03-16T07:18:58.238Z,1001.70
2019-03-16T07:19:48.299Z,1001.71
2019-03-16T07:20:48.282Z,1001.69
2019-03-16T07:21:48.257Z,1001.81
2019-03-16T07:22:48.238Z,1001.88
2019-03-16T07:23:48.215Z,1001.79
2019-03-16T07:24:51.429Z,1001.64
2019-03-16T07:25:48.174Z,1001.64
2019-03-16T07:26:48.153Z,1001.76
2019-03-16T07:27:48.129Z,1001.81
2019-03-16T07:28:48.120Z,1001.76
2019-03-16T07:29:48.085Z,1001.79
2019-03-16T07:30:48.064Z,1001.73
2019-03-16T07:31:48.045Z,1001.85
2019-03-16T07:32:48.022Z,1001.71
2019-03-16T07:33:47.999Z,1001.61
2019-03-16T07:34:47.980Z,1001.74
2019-03-16T07:35:47.963Z,1001.83
2019-03-16T07:36:47.939Z,1001.76
2019-03-16T07:37:47.928Z,1001.77
2019-03-16T07:38:47.895Z,1001.82
2019-03-16T07:39:47.873Z,1001.99
2019-03-16T07:40:47.859Z,1001.92
2019-03-16T07:41:47.835Z,1001.80
2019-03-16T07:42:47.816Z,1001.82
2019-03-16T07:43:47.788Z,1002.08
2019-03-16T07:44:47.767Z,1002.03
2019-03-16T07:45:47.748Z,1002.15
2019-03-16T07:46:47.745Z,1002.12
2019-03-16T07:47:47.705Z,1002.11
2019-03-16T07:48:47.681Z,1002.00
2019-03-16T07:49:47.711Z,1002.05
2019-03-16T07:50:47.637Z,1002.20
2019-03-16T07:51:47.622Z,1001.91
2019-03-16T07:52:47.594Z,1001.95
2019-03-16T07:53:47.580Z,1002.04
2019-03-16T07:54:47.559Z,1002.06
2019-03-16T07:55:47.535Z,1002.03
2019-03-16T07:56:47.515Z,1002.11
2019-03-16T07:57:47.495Z,1002.01
2019-03-16T07:58:47.469Z,1001.99
2019-03-16T07:59:47.459Z,1002.01
2019-03-16T08:00:47.431Z,1001.95
2019-03-16T08:01:47.408Z,1002.09
2019-03-16T08:02:47.389Z,1002.04
2019-03-16T08:03:47.369Z,1002.23
2019-03-16T08:04:47.345Z,1002.13
2019-03-16T08:05:47.325Z,1002.04
2019-03-16T08:06:47.304Z,1002.22
2019-03-16T08:07:47.289Z,1002.13
2019-03-16T08:08:47.263Z,1002.04
2019-03-16T08:09:47.243Z,1002.13
2019-03-16T08:10:47.231Z,1002.02
2019-03-16T08:11:47.206Z,1002.13
2019-03-16T08:12:47.188Z,1002.12
2019-03-16T08:13:47.159Z,1002.20
2019-03-16T08:14:47.139Z,1002.30
2019-03-16T08:15:47.121Z,1002.19
2019-03-16T08:16:47.104Z,1002.16
2019-03-16T08:17:47.081Z,1002.15
2019-03-16T08:18:47.056Z,1002.23
2019-03-16T08:19:47.041Z,1002.30
2019-03-16T08:20:47.014Z,1002.43
2019-03-16T08:21:46.997Z,1002.41
2019-03-16T08:22:46.977Z,1002.62
2019-03-16T08:23:46.950Z,1002.65
2019-03-16T08:24:46.934Z,1002.50
2019-03-16T08:25:46.915Z,1002.45
2019-03-16T08:26:46.891Z,1002.86
2019-03-16T08:27:54.111Z,1002.85
2019-03-16T08:28:46.849Z,1002.55
2019-03-16T08:29:46.832Z,1002.56
2019-03-16T08:30:46.810Z,1002.69
2019-03-16T08:31:46.792Z,1002.59
2019-03-16T08:32:46.773Z,1002.57
2019-03-16T08:33:46.745Z,1002.69
2019-03-16T08:34:46.738Z,1002.65
2019-03-16T08:35:46.711Z,1002.61
2019-03-16T08:36:46.695Z,1002.60
2019-03-16T08:37:46.666Z,1002.64
2019-03-16T08:38:46.656Z,1002.68
2019-03-16T08:39:46.626Z,1002.60
2019-03-16T08:40:46.612Z,1002.59
2019-03-16T08:41:46.590Z,1002.63
2019-03-16T08:42:46.575Z,1002.64
2019-03-16T08:43:46.552Z,1002.59
2019-03-16T08:44:46.528Z,1002.57
2019-03-16T08:45:46.504Z,1002.63
2019-03-16T08:46:46.485Z,1002.62
2019-03-16T08:47:46.465Z,1002.67
2019-03-16T08:48:46.450Z,1002.62
2019-03-16T08:49:46.432Z,1002.70
2019-03-16T08:50:46.407Z,1002.74
2019-03-16T08:51:46.386Z,1002.57
2019-03-16T08:52:46.366Z,1002.66
2019-03-16T08:53:46.345Z,1002.66
2019-03-16T08:54:46.326Z,1002.68
2019-03-16T08:55:46.304Z,1002.77
2019-03-16T08:56:46.289Z,1002.75
2019-03-16T08:57:46.266Z,1002.71
2019-03-16T08:58:46.246Z,1002.75
2019-03-16T08:59:46.229Z,1002.63
2019-03-16T09:00:46.205Z,1002.74
2019-03-16T09:01:46.186Z,1002.66
2019-03-16T09:02:46.165Z,1002.70
2019-03-16T09:03:46.144Z,1002.76
2019-03-16T09:04:46.127Z,1002.79
2019-03-16T09:05:46.108Z,1002.80
2019-03-16T09:06:46.087Z,1002.88
2019-03-16T09:07:46.068Z,1002.89
2019-03-16T09:08:46.052Z,1002.84
2019-03-16T09:09:46.036Z,1002.76
2019-03-16T09:10:46.007Z,1002.71
2019-03-16T09:11:45.992Z,1002.62
2019-03-16T09:12:54.904Z,1002.78
2019-03-16T09:13:45.952Z,1002.77
2019-03-16T09:14:45.933Z,1002.81
2019-03-16T09:15:45.915Z,1002.81
2019-03-16T09:16:45.891Z,1002.82
2019-03-16T09:17:45.886Z,1002.81
2019-03-16T09:18:45.871Z,1002.87
2019-03-16T09:19:45.836Z,1002.83
2019-03-16T09:20:45.819Z,1002.64
2019-03-16T09:21:45.802Z,1002.84
2019-03-16T09:22:45.788Z,1002.91
2019-03-16T09:23:45.766Z,1002.72
2019-03-16T09:24:45.743Z,1002.76
2019-03-16T09:25:45.727Z,1002.86
2019-03-16T09:26:45.706Z,1002.81
2019-03-16T09:27:45.688Z,1002.83
2019-03-16T09:28:45.672Z,1002.59
2019-03-16T09:29:45.652Z,1002.67
2019-03-16T09:30:45.636Z,1002.75
2019-03-16T09:31:45.618Z,1002.73
2019-03-16T09:32:45.602Z,1002.66
2019-03-16T09:33:45.580Z,1002.77
2019-03-16T09:34:45.560Z,1002.78
2019-03-16T09:35:45.544Z,1002.72
2019-03-16T09:36:45.531Z,1002.75
2019-03-16T09:37:45.515Z,1002.64
2019-03-16T09:38:45.494Z,1002.94
2019-03-16T09:39:45.468Z,1003.00
2019-03-16T09:40:45.453Z,1002.83
2019-03-16T09:41:45.535Z,1002.78
2019-03-16T09:42:45.416Z,1002.75
2019-03-16T09:43:45.402Z,1002.71
2019-03-16T09:44:45.382Z,1002.77
2019-03-16T09:45:45.365Z,1002.84
2019-03-16T09:46:45.345Z,1002.88
2019-03-16T09:47:46.137Z,1002.91
2019-03-16T09:48:45.311Z,1002.93
2019-03-16T09:49:45.295Z,1002.98
2019-03-16T09:50:45.285Z,1002.81
2019-03-16T09:51:45.258Z,1002.93
2019-03-16T09:52:45.239Z,1002.90
2019-03-16T09:53:45.224Z,1002.94
2019-03-16T09:54:45.209Z,1002.80
2019-03-16T09:55:45.186Z,1002.84
2019-03-16T09:56:45.168Z,1002.94
2019-03-16T09:57:45.155Z,1003.00
2019-03-16T09:58:45.135Z,1002.88
2019-03-16T09:59:45.128Z,1002.91
2019-03-16T10:00:45.106Z,1002.87
2019-03-16T10:01:45.082Z,1002.79
2019-03-16T10:02:45.063Z,1002.78
2019-03-16T10:03:45.056Z,1002.78
2019-03-16T10:04:45.035Z,1002.76
2019-03-16T10:05:45.017Z,1002.90
2019-03-16T10:06:44.998Z,1002.86
2019-03-16T10:07:45.011Z,1002.97
2019-03-16T10:08:44.961Z,1002.93
2019-03-16T10:09:44.954Z,1002.94
2019-03-16T10:10:44.926Z,1003.05
2019-03-16T10:11:44.915Z,1003.04
2019-03-16T10:12:44.893Z,1003.07
2019-03-16T10:13:44.875Z,1003.15
2019-03-16T10:14:44.857Z,1003.15
2019-03-16T10:15:44.841Z,1003.13
2019-03-16T10:16:44.827Z,1003.19
2019-03-16T10:17:44.813Z,1003.23
2019-03-16T10:18:44.789Z,1003.17
2019-03-16T10:19:44.778Z,1003.28
2019-03-16T10:20:44.758Z,1002.94
2019-03-16T10:21:44.746Z,1003.07
2019-03-16T10:22:44.727Z,1003.03
2019-03-16T10:23:44.710Z,1003.08
2019-03-16T10:24:44.693Z,1002.93
2019-03-16T10:25:44.677Z,1002.88
2019-03-16T10:26:44.667Z,1002.88
2019-03-16T10:27:44.700Z,1002.88
2019-03-16T10:28:44.632Z,1002.79
2019-03-16T10:29:44.613Z,1002.79
2019-03-16T10:30:44.599Z,1002.83
2019-03-16T10:31:44.582Z,1002.85
2019-03-16T10:32:44.566Z,1002.75
2019-03-16T10:33:44.552Z,1002.73
2019-03-16T10:34:44.533Z,1002.81
2019-03-16T10:35:44.546Z,1002.78
2019-03-16T10:36:44.509Z,1002.79
2019-03-16T10:37:44.483Z,1002.83
2019-03-16T10:38:44.470Z,1002.83
2019-03-16T10:39:44.458Z,1002.84
2019-03-16T10:40:44.438Z,1002.85
2019-03-16T10:41:44.419Z,1002.88
2019-03-16T10:42:44.405Z,1002.85
2019-03-16T10:43:44.389Z,1002.82
2019-03-16T10:44:44.378Z,1002.84
2019-03-16T10:45:44.412Z,1002.87
2019-03-16T10:46:44.353Z,1002.79
2019-03-16T10:47:44.385Z,1002.79
2019-03-16T10:48:44.306Z,1002.80
2019-03-16T10:49:44.289Z,1002.87
2019-03-16T10:50:44.272Z,1002.84
2019-03-16T10:51:44.260Z,1002.91
2019-03-16T10:52:44.240Z,1002.89
2019-03-16T10:53:44.226Z,1002.88
2019-03-16T10:54:44.208Z,1002.86
2019-03-16T10:55:44.188Z,1002.81
2019-03-16T10:56:44.170Z,1002.89
2019-03-16T10:57:44.155Z,1002.81
2019-03-16T10:58:55.730Z,1002.97
2019-03-16T10:59:44.124Z,1002.91
2019-03-16T11:00:44.107Z,1002.98
2019-03-16T11:01:44.092Z,1002.90
2019-03-16T11:02:44.068Z,1002.96
2019-03-16T11:03:44.053Z,1002.95
2019-03-16T11:04:44.046Z,1002.94
2019-03-16T11:05:44.013Z,1002.90
2019-03-16T11:06:44.010Z,1002.91
2019-03-16T11:07:43.989Z,1002.92
2019-03-16T11:08:43.970Z,1002.92
2019-03-16T11:09:43.947Z,1002.89
2019-03-16T11:10:43.932Z,1003.02
2019-03-16T11:11:43.926Z,1002.92
2019-03-16T11:12:43.901Z,1002.89
2019-03-16T11:13:43.882Z,1002.89
2019-03-16T11:14:43.860Z,1002.85
2019-03-16T11:15:43.843Z,1002.81
2019-03-16T11:16:43.830Z,1002.86
2019-03-16T11:17:43.808Z,1002.90
2019-03-16T11:18:43.796Z,1002.86
2019-03-16T11:19:43.771Z,1002.81
2019-03-16T11:20:43.754Z,1002.85
2019-03-16T11:21:43.733Z,1002.76
2019-03-16T11:22:43.735Z,1002.78
2019-03-16T11:23:43.700Z,1002.71
2019-03-16T11:24:43.681Z,1002.65
2019-03-16T11:25:43.662Z,1002.60
2019-03-16T11:26:43.656Z,1002.58
2019-03-16T11:27:43.634Z,1002.58
2019-03-16T11:28:43.614Z,1002.58
2019-03-16T11:29:43.593Z,1002.62
2019-03-16T11:30:43.575Z,1002.61
2019-03-16T11:31:43.556Z,1002.61
2019-03-16T11:32:43.539Z,1002.60
2019-03-16T11:33:43.527Z,1002.58
2019-03-16T11:34:43.502Z,1002.58
2019-03-16T11:35:43.484Z,1002.60
2019-03-16T11:36:43.481Z,1002.52
2019-03-16T11:37:43.449Z,1002.60
2019-03-16T11:38:43.427Z,1002.61
2019-03-16T11:39:43.412Z,1002.50
2019-03-16T11:40:43.389Z,1002.56
2019-03-16T11:41:43.376Z,1002.55
2019-03-16T11:42:43.397Z,1002.53
2019-03-16T11:43:43.337Z,1002.59
2019-03-16T11:44:43.331Z,1002.56
2019-03-16T11:45:43.301Z,1002.58
2019-03-16T11:46:43.281Z,1002.62
2019-03-16T11:47:43.265Z,1002.60
2019-03-16T11:48:43.250Z,1002.65
2019-03-16T11:49:43.226Z,1002.60
2019-03-16T11:50:43.210Z,1002.61
2019-03-16T11:51:43.185Z,1002.62
2019-03-16T11:52:43.171Z,1002.64
2019-03-16T11:53:43.159Z,1002.59
2019-03-16T11:54:43.126Z,1002.59
2019-03-16T11:55:43.113Z,1002.64
2019-03-16T11:56:43.095Z,1002.59
2019-03-16T11:57:43.072Z,1002.72
2019-03-16T11:58:43.068Z,1002.61
2019-03-16T11:59:43.042Z,1002.69
2019-03-16T12:00:43.026Z,1002.69
2019-03-16T12:01:42.995Z,1002.69
2019-03-16T12:02:42.980Z,1002.73
2019-03-16T12:03:42.960Z,1002.73
2019-03-16T12:04:42.938Z,1002.68
2019-03-16T12:05:42.920Z,1002.70
2019-03-16T12:06:42.897Z,1002.67
2019-03-16T12:07:42.879Z,1002.67
2019-03-16T12:08:42.863Z,1002.68
2019-03-16T12:09:42.843Z,1002.74
2019-03-16T12:10:42.835Z,1002.68
2019-03-16T12:11:42.802Z,1002.74
2019-03-16T12:12:42.782Z,1002.80
2019-03-16T12:13:44.055Z,1002.77
2019-03-16T12:14:42.740Z,1002.82
2019-03-16T12:15:42.724Z,1002.82
2019-03-16T12:16:42.707Z,1002.85